Time;durP1;ratioP1;P1;durP2;ratioP2;P2;SDS_P1;SDS_P2;PMS_P1;PMS_P2;Temp;Humidity;BMP_temperature;BMP_pressure;BME280_temperature;BME280_humidity;BME280_pressure;Samples;Min_cycle;Max_cycle;Signal;HPM_P1;HPM_P2
2021/01/19 00:00:13;;;;;;;262.85;151.30;;;77.50;1459.20;;;;;;4935753;29;20371;-68
2021/01/19 00:02:39;;;;;;;258.55;148.90;;;76.90;1561.60;;;;;;4936477;29;20055;-67
2021/01/19 00:05:06;;;;;;;277.95;161.52;;;76.90;1561.60;;;;;;4936328;29;20063;-67
2021/01/19 00:07:32;;;;;;;300.90;172.27;;;77.10;1536.00;;;;;;4936169;29;20032;-68
2021/01/19 00:09:57;;;;;;;330.77;194.23;;;77.40;1484.80;;;;;;4936118;29;20051;-68
2021/01/19 00:12:23;;;;;;;365.38;215.23;;;77.60;1484.80;;;;;;4936129;29;20032;-67
2021/01/19 00:14:51;;;;;;;285.85;170.05;;;77.40;1510.40;;;;;;4936209;29;20028;-68
2021/01/19 00:17:20;;;;;;;220.95;128.77;;;76.80;1561.60;;;;;;4936338;29;20046;-68
2021/01/19 00:19:45;;;;;;;200.23;118.88;;;76.90;1536.00;;;;;;4935921;29;20055;-68
2021/01/19 00:22:11;;;;;;;187.02;112.75;;;77.20;1510.40;;;;;;4935612;29;20055;-68
2021/01/19 00:24:37;;;;;;;147.55;89.03;;;77.50;1484.80;;;;;;4935683;29;20035;-67
2021/01/19 00:27:03;;;;;;;115.25;66.07;;;77.60;1459.20;;;;;;4935709;29;20034;-68
2021/01/19 00:29:32;;;;;;;108.45;63.92;;;77.30;1459.20;;;;;;4933852;29;20039;-66
2021/01/19 00:31:57;;;;;;;121.57;72.13;;;52.10;1536.00;;;;;;4950109;29;20427;-67
2021/01/19 00:34:24;;;;;;;135.48;83.97;;;51.70;1587.20;;;;;;4949777;29;20103;-68
2021/01/19 00:36:49;;;;;;;191.02;113.32;;;52.10;1587.20;;;;;;4935691;29;20058;-68
2021/01/19 00:39:15;;;;;;;197.32;111.45;;;77.20;1536.00;;;;;;4934258;29;20336;-68
2021/01/19 00:41:41;;;;;;;227.95;128.27;;;77.30;1536.00;;;;;;4935422;29;20032;-68
2021/01/19 00:44:07;;;;;;;196.30;115.53;;;77.60;1561.60;;;;;;4935459;29;20034;-69
2021/01/19 00:46:33;;;;;;;195.00;117.45;;;77.70;1484.80;;;;;;4930212;29;20131;-68
2021/01/19 00:48:59;;;;;;;185.40;108.53;;;77.00;1561.60;;;;;;4916345;29;20024;-68
2021/01/19 00:51:32;;;;;;;190.52;107.53;;;52.00;1638.40;;;;;;4916388;29;20023;-68
2021/01/19 00:53:58;;;;;;;190.23;106.43;;;51.50;1664.00;;;;;;4916462;29;20647;-69
2021/01/19 00:56:23;;;;;;;168.35;92.72;;;51.50;1664.00;;;;;;4919030;29;20036;-67
2021/01/19 00:58:49;;;;;;;131.32;78.00;;;51.40;1689.60;;;;;;4918540;29;20514;-68
2021/01/19 01:01:15;;;;;;;124.95;72.18;;;51.70;1638.40;;;;;;4936441;29;20038;-68
2021/01/19 01:03:40;;;;;;;94.30;54.55;;;51.70;1638.40;;;;;;4939141;29;20038;-68
2021/01/19 01:06:06;;;;;;;86.57;51.63;;;51.60;1612.80;;;;;;4939037;29;20028;-67
2021/01/19 01:08:32;;;;;;;91.15;52.13;;;51.60;1587.20;;;;;;4939235;29;20084;-68
2021/01/19 01:10:58;;;;;;;83.75;51.13;;;51.80;1587.20;;;;;;4939132;29;20023;-68
2021/01/19 01:13:23;;;;;;;90.25;54.88;;;52.00;1561.60;;;;;;4953965;29;20052;-68
2021/01/19 01:15:49;;;;;;;103.80;60.28;;;77.10;1536.00;;;;;;4939323;29;20035;-68
2021/01/19 01:18:15;;;;;;;91.43;53.63;;;77.40;1510.40;;;;;;4939387;29;20020;-68
2021/01/19 01:20:42;;;;;;;83.53;48.08;;;77.70;1484.80;;;;;;4939636;29;20382;-69
2021/01/19 01:23:14;;;;;;;96.38;54.45;;;77.50;1484.80;;;;;;4939281;29;20028;-67
2021/01/19 01:25:40;;;;;;;;;;;77.50;1484.80;;;;;;4939934;29;20489;-67
2021/01/19 01:28:07;;;;;;;130.55;75.82;;;77.60;1484.80;;;;;;4939457;29;20377;-68
2021/01/19 01:30:32;;;;;;;130.15;74.80;;;77.70;1459.20;;;;;;4928754;29;20121;-69
2021/01/19 01:32:58;;;;;;;128.27;76.53;;;102.40;1459.20;;;;;;4919175;29;20036;-70
2021/01/19 01:35:24;;;;;;;142.45;87.00;;;102.50;1433.60;;;;;;4919121;29;20132;-70
2021/01/19 01:37:52;;;;;;;158.93;100.70;;;77.60;1433.60;;;;;;4918855;29;20044;-72
2021/01/19 01:40:23;;;;;;;140.73;84.45;;;77.40;1459.20;;;;;;4919509;29;20154;-71
2021/01/19 01:42:50;;;;;;;106.47;60.67;;;77.40;1510.40;;;;;;4919650;29;20390;-71
2021/01/19 01:45:20;;;;;;;112.00;62.65;;;77.10;1510.40;;;;;;4919433;29;20059;-71
2021/01/19 01:47:48;;;;;;;121.72;73.65;;;77.10;1536.00;;;;;;4919641;29;20060;-70
2021/01/19 01:50:14;;;;;;;144.98;85.93;;;77.00;1536.00;;;;;;4919416;29;20088;-71
2021/01/19 01:52:40;;;;;;;139.50;85.18;;;77.30;1510.40;;;;;;4919469;29;20016;-71
2021/01/19 01:55:06;;;;;;;166.32;95.43;;;77.30;1536.00;;;;;;4919263;29;20083;-70
2021/01/19 01:57:33;;;;;;;159.85;94.80;;;77.60;1510.40;;;;;;4917534;29;20391;-71
2021/01/19 02:00:01;;;;;;;164.23;96.95;;;77.70;1484.80;;;;;;4919298;29;20030;-71
2021/01/19 02:02:27;;;;;;;135.85;86.40;;;102.50;1484.80;;;;;;4919294;29;20070;-71
2021/01/19 02:04:53;;;;;;;138.20;86.45;;;102.50;1484.80;;;;;;4919259;29;20032;-71
2021/01/19 02:07:45;;;;;;;135.30;83.40;;;102.40;1510.40;;;;;;4918138;29;20554;-72
2021/01/19 02:10:32;;;;;;;;;;;102.50;1484.80;;;;;;4917472;29;20048;-71
2021/01/19 02:13:09;;;;;;;136.48;84.28;;;102.40;1510.40;;;;;;4919246;29;19961;-71
2021/01/19 02:15:41;;;;;;;128.93;83.03;;;77.50;1561.60;;;;;;4918764;29;20040;-71
2021/01/19 02:18:15;;;;;;;131.90;81.35;;;77.10;1587.20;;;;;;4918880;29;20024;-70
2021/01/19 02:20:47;;;;;;;126.85;78.97;;;77.30;1587.20;;;;;;4919168;29;20475;-71
2021/01/19 02:23:34;;;;;;;129.02;78.35;;;77.70;1561.60;;;;;;4918839;29;20032;-72
2021/01/19 02:26:08;;;;;;;132.15;80.20;;;102.60;1510.40;;;;;;4918712;29;20028;-72
2021/01/19 02:28:42;;;;;;;173.40;103.80;;;77.40;1561.60;;;;;;4918845;29;20060;-70
2021/01/19 02:31:39;;;;;;;176.43;105.88;;;77.10;1612.80;;;;;;4917502;29;20505;-71
2021/01/19 02:34:19;;;;;;;155.00;96.03;;;77.30;1587.20;;;;;;4918461;29;20036;-71
2021/01/19 02:37:06;;;;;;;158.23;93.35;;;77.50;1561.60;;;;;;4918821;29;20048;-71
2021/01/19 02:39:38;;;;;;;138.68;82.70;;;;;;;;;;4918751;29;20103;-70
2021/01/19 02:42:08;;;;;;;129.38;79.60;;;102.60;1510.40;;;;;;4918440;29;20032;-68
2021/01/19 02:44:37;;;;;;;127.22;76.35;;;102.70;1510.40;;;;;;4918483;29;20364;-69
2021/01/19 02:47:03;;;;;;;125.35;79.80;;;102.60;1510.40;;;;;;4917161;29;20035;-69
2021/01/19 02:49:29;;;;;;;119.88;75.80;;;102.90;1484.80;;;;;;4918428;29;20095;-67
2021/01/19 02:51:57;;;;;;;128.52;78.28;;;102.80;1484.80;;;;;;4918623;29;20079;-69
2021/01/19 02:54:23;;;;;;;125.05;76.93;;;102.90;1484.80;;;;;;4918028;29;20471;-69
2021/01/19 02:57:06;;;;;;;124.32;75.90;;;103.00;1484.80;;;;;;4918482;29;20028;-71
2021/01/19 02:59:51;;;;;;;127.55;76.97;;;;;;;;;;4918043;29;20471;-72
2021/01/19 03:02:22;;;;;;;132.65;77.30;;;103.00;1459.20;;;;;;4918086;29;20064;-71
2021/01/19 03:04:52;;;;;;;127.90;76.15;;;102.80;1510.40;;;;;;4918152;29;20431;-70
2021/01/19 03:07:21;;;;;;;138.38;83.82;;;102.50;1536.00;;;;;;4918237;29;20499;-71
2021/01/19 03:09:49;;;;;;;134.40;83.30;;;102.60;1536.00;;;;;;4918238;29;20031;-70
2021/01/19 03:12:16;;;;;;;139.68;92.22;;;102.60;1510.40;;;;;;4918071;29;20398;-70
2021/01/19 03:14:43;;;;;;;145.05;88.65;;;102.50;1536.00;;;;;;4917737;29;20042;-70
2021/01/19 03:17:10;;;;;;;138.98;84.60;;;102.50;1536.00;;;;;;4917966;29;20487;-70
2021/01/19 03:19:42;;;;;;;135.00;85.40;;;102.50;1536.00;;;;;;4917501;29;20070;-69
2021/01/19 03:22:09;;;;;;;198.57;116.00;;;102.60;1536.00;;;;;;4918037;29;20028;-70
2021/01/19 03:24:36;;;;;;;234.68;133.23;;;102.70;1510.40;;;;;;4917717;29;20024;-70
2021/01/19 03:27:02;;;;;;;255.48;145.88;;;102.70;1536.00;;;;;;4917748;29;20075;-70
2021/01/19 03:29:28;;;;;;;268.58;155.18;;;102.40;1561.60;;;;;;4917420;29;20038;-69
2021/01/19 03:31:53;;;;;;;282.40;158.30;;;102.50;1561.60;;;;;;4917765;29;20032;-71
2021/01/19 03:34:19;;;;;;;256.58;150.50;;;77.70;1587.20;;;;;;4917011;29;20024;-73
2021/01/19 03:36:46;;;;;;;231.95;140.95;;;102.40;1587.20;;;;;;4917322;29;20047;-71
2021/01/19 03:39:12;;;;;;;323.25;179.52;;;77.70;1587.20;;;;;;4917564;29;20055;-71
2021/01/19 03:41:38;;;;;;;255.27;149.43;;;102.50;1587.20;;;;;;4917330;29;20035;-68
2021/01/19 03:44:04;;;;;;;239.52;143.50;;;102.60;1561.60;;;;;;4917125;29;20028;-69
2021/01/19 03:46:30;;;;;;;256.77;149.88;;;102.70;1536.00;;;;;;4917254;29;20391;-71
2021/01/19 03:48:56;;;;;;;302.38;170.70;;;102.70;1536.00;;;;;;4917646;29;20387;-70
2021/01/19 03:51:25;;;;;;;266.17;160.93;;;102.60;1561.60;;;;;;4917168;29;20028;-70
2021/01/19 03:53:54;;;;;;;322.10;175.73;;;77.70;1612.80;;;;;;4917348;29;20024;-69
2021/01/19 03:56:20;;;;;;;284.10;168.02;;;102.50;1561.60;;;;;;4916853;29;20480;-70
2021/01/19 03:58:47;;;;;;;265.88;152.38;;;102.60;1561.60;;;;;;4916689;29;20039;-70
2021/01/19 04:01:12;;;;;;;305.90;168.30;;;77.70;1612.80;;;;;;4915906;29;20479;-70
2021/01/19 04:03:38;;;;;;;279.58;158.82;;;102.60;1561.60;;;;;;4916961;29;20039;-69
2021/01/19 04:06:06;;;;;;;249.18;147.13;;;102.50;1587.20;;;;;;4916908;29;20028;-70
2021/01/19 04:08:36;;;;;;;256.15;150.60;;;102.60;1587.20;;;;;;4917007;29;20032;-71
2021/01/19 04:11:02;;;;;;;242.93;147.63;;;102.60;1587.20;;;;;;4917418;29;20376;-71
2021/01/19 04:13:27;;;;;;;243.25;146.20;;;102.60;1587.20;;;;;;4931405;29;20111;-70
2021/01/19 04:15:53;;;;;;;241.25;149.05;;;102.50;1587.20;;;;;;4916855;29;20046;-71
2021/01/19 04:18:19;;;;;;;241.60;149.13;;;102.50;1587.20;;;;;;4916747;29;20031;-70
2021/01/19 04:20:45;;;;;;;246.65;147.88;;;102.50;1612.80;;;;;;4916699;29;20471;-70
2021/01/19 04:23:14;;;;;;;222.98;139.73;;;102.60;1587.20;;;;;;4916829;29;20117;-69
2021/01/19 04:25:41;;;;;;;217.30;129.30;;;102.60;1587.20;;;;;;4916641;29;20024;-70
2021/01/19 04:28:07;;;;;;;198.38;119.80;;;102.70;1587.20;;;;;;4916922;29;20059;-70
2021/01/19 04:30:33;;;;;;;182.55;111.72;;;102.60;1587.20;;;;;;4916204;29;20052;-71
2021/01/19 04:32:58;;;;;;;170.35;106.43;;;102.60;1587.20;;;;;;4916782;29;20028;-70
2021/01/19 04:35:24;;;;;;;154.85;94.03;;;102.70;1561.60;;;;;;4915904;29;20059;-70
2021/01/19 04:37:50;;;;;;;140.80;91.68;;;102.70;1561.60;;;;;;4917005;29;20036;-70
2021/01/19 04:40:16;;;;;;;146.50;91.90;;;102.80;1536.00;;;;;;4916561;29;20029;-70
2021/01/19 04:42:41;;;;;;;143.15;90.32;;;102.90;1536.00;;;;;;4916629;29;20032;-70
2021/01/19 04:45:10;;;;;;;146.68;88.93;;;102.80;1536.00;;;;;;4916404;29;20092;-71
2021/01/19 04:47:37;;;;;;;161.13;100.43;;;102.80;1510.40;;;;;;4916420;29;20033;-70
2021/01/19 04:50:05;;;;;;;167.88;109.88;;;102.90;1510.40;;;;;;4916539;29;20113;-70
2021/01/19 04:52:32;;;;;;;171.15;107.43;;;102.90;1536.00;;;;;;4916331;29;20116;-70
2021/01/19 04:55:07;;;;;;;256.17;146.00;;;102.80;1536.00;;;;;;4916490;29;20406;-70
2021/01/19 04:57:35;;;;;;;192.68;120.47;;;102.80;1536.00;;;;;;4896204;29;20499;-67
2021/01/19 05:00:03;;;;;;;174.10;110.78;;;102.60;1561.60;;;;;;4897532;29;20407;-67
2021/01/19 05:02:39;;;;;;;172.52;113.40;;;77.70;1612.80;;;;;;4897371;29;20035;-69
2021/01/19 05:05:35;;;;;;;188.07;120.07;;;77.50;1638.40;;;;;;4912683;29;20517;-68
2021/01/19 05:08:10;;;;;;;198.13;127.70;;;102.50;1587.20;;;;;;4915865;29;20040;-69
2021/01/19 05:10:37;;;;;;;211.05;133.18;;;102.40;1612.80;;;;;;4911828;29;20099;-68
2021/01/19 05:13:14;;;;;;;220.10;138.80;;;77.70;1638.40;;;;;;4906905;29;20084;-66
2021/01/19 05:15:44;;;;;;;232.48;146.85;;;77.50;1638.40;;;;;;4914868;29;20411;-69
2021/01/19 05:18:11;;;;;;;248.80;152.57;;;77.60;1664.00;;;;;;4916194;29;20032;-70
2021/01/19 05:20:51;;;;;;;232.65;146.73;;;102.50;1638.40;;;;;;4915823;29;20028;-71
2021/01/19 05:23:22;;;;;;;233.38;150.05;;;77.30;1715.20;;;;;;4915792;29;20475;-69
2021/01/19 05:26:01;;;;;;;257.17;158.63;;;76.90;1766.40;;;;;;4915626;29;20028;-69
2021/01/19 05:28:30;;;;;;;251.95;161.38;;;77.00;1817.60;;;;;;4915536;29;20028;-70
2021/01/19 05:30:55;;;;;;;240.27;149.25;;;77.20;1766.40;;;;;;4916064;29;20032;-70
2021/01/19 05:33:21;;;;;;;232.45;139.48;;;77.60;1715.20;;;;;;4915982;29;20390;-69
2021/01/19 05:35:47;;;;;;;222.13;139.95;;;102.50;1664.00;;;;;;4915986;29;20044;-70
2021/01/19 05:38:13;;;;;;;226.65;138.93;;;102.50;1664.00;;;;;;4915905;29;20040;-69
2021/01/19 05:40:43;;;;;;;225.07;137.27;;;77.30;1766.40;;;;;;4916184;29;20060;-70
2021/01/19 05:43:11;;;;;;;224.07;131.55;;;76.90;1843.20;;;;;;4918338;29;20035;-70
2021/01/19 05:45:37;;;;;;;220.55;130.93;;;52.10;1868.80;;;;;;4919562;29;20029;-70
2021/01/19 05:48:16;;;;;;;237.38;139.55;;;76.80;1868.80;;;;;;4919504;29;20028;-70
2021/01/19 05:50:42;;;;;;;260.67;152.48;;;77.40;1766.40;;;;;;4919430;29;20436;-69
2021/01/19 05:53:15;;;;;;;326.38;195.77;;;77.20;1792.00;;;;;;4919463;29;20162;-69
2021/01/19 05:55:42;;;;;;;387.98;237.60;;;77.40;1766.40;;;;;;4919309;29;20066;-70
2021/01/19 05:58:15;;;;;;;379.08;237.95;;;77.50;1766.40;;;;;;4919568;29;20115;-70
2021/01/19 06:00:42;;;;;;;384.15;245.23;;;102.40;1715.20;;;;;;4919089;29;20028;-71
2021/01/19 06:03:15;;;;;;;471.35;313.00;;;77.50;1740.80;;;;;;4919226;29;20499;-70
2021/01/19 06:05:41;;;;;;;465.95;319.67;;;102.50;1715.20;;;;;;4919459;29;20043;-71
2021/01/19 06:08:09;;;;;;;464.45;316.20;;;102.70;1689.60;;;;;;4918985;29;20028;-70
2021/01/19 06:10:36;;;;;;;445.65;300.52;;;;;;;;;;4918888;29;20032;-70
2021/01/19 06:13:01;;;;;;;403.45;255.77;;;102.80;1689.60;;;;;;4918862;29;20024;-70
2021/01/19 06:15:29;;;;;;;333.40;214.63;;;102.80;1664.00;;;;;;4918933;29;20051;-70
2021/01/19 06:17:56;;;;;;;329.98;214.52;;;77.50;1766.40;;;;;;4918771;29;20539;-70
2021/01/19 06:20:22;;;;;;;370.30;230.65;;;77.30;1817.60;;;;;;4919093;29;20397;-71
2021/01/19 06:22:48;;;;;;;373.38;244.05;;;77.40;1817.60;;;;;;4918675;29;20108;-71
2021/01/19 06:25:14;;;;;;;310.35;194.73;;;77.70;1766.40;;;;;;4918641;29;20036;-70
2021/01/19 06:27:40;;;;;;;296.02;182.40;;;77.60;1766.40;;;;;;4919114;29;20102;-71
2021/01/19 06:30:09;;;;;;;220.15;131.82;;;77.60;1766.40;;;;;;4918854;29;20055;-70
2021/01/19 06:32:49;;;;;;;144.82;85.32;;;77.60;1766.40;;;;;;4918799;29;20039;-70
2021/01/19 06:35:20;;;;;;;153.77;92.75;;;77.70;1766.40;;;;;;4918222;29;20079;-70
2021/01/19 06:37:49;;;;;;;153.47;94.00;;;77.60;1766.40;;;;;;4918818;29;20107;-70
2021/01/19 06:40:16;;;;;;;206.60;126.20;;;102.60;1740.80;;;;;;4918796;29;20032;-71
2021/01/19 06:43:02;;;;;;;212.93;128.38;;;102.80;1715.20;;;;;;4918362;29;20104;-70
2021/01/19 06:45:29;;;;;;;198.85;121.25;;;102.80;1715.20;;;;;;4918313;29;20442;-71
2021/01/19 06:47:56;;;;;;;188.32;116.45;;;102.50;1740.80;;;;;;4918456;29;20384;-70
2021/01/19 06:50:24;;;;;;;209.43;133.82;;;102.60;1740.80;;;;;;4918134;29;20067;-70
2021/01/19 06:53:15;;;;;;;181.07;114.20;;;102.50;1766.40;;;;;;4917875;29;20028;-70
2021/01/19 06:55:59;;;;;;;244.27;147.70;;;102.50;1766.40;;;;;;4917998;29;20032;-70
2021/01/19 06:58:43;;;;;;;245.55;150.70;;;;;;;;;;4918059;29;20478;-70
2021/01/19 07:01:13;;;;;;;234.02;150.38;;;103.00;1689.60;;;;;;4918006;29;20464;-71
2021/01/19 07:03:41;;;;;;;257.83;162.27;;;103.30;1689.60;;;;;;4918081;29;20040;-71
2021/01/19 07:06:09;;;;;;;303.60;195.57;;;103.30;1664.00;;;;;;4918008;29;20031;-70
2021/01/19 07:08:56;;;;;;;340.38;224.23;;;103.10;1689.60;;;;;;4917990;29;20072;-71
2021/01/19 07:11:49;;;;;;;357.40;237.07;;;102.80;1715.20;;;;;;4917921;29;20031;-70
2021/01/19 07:14:18;;;;;;;382.23;251.98;;;102.80;1715.20;;;;;;4932358;29;20079;-71
2021/01/19 07:16:53;;;;;;;389.05;257.02;;;102.80;1715.20;;;;;;4917880;29;20044;-70
2021/01/19 07:19:37;;;;;;;426.58;289.23;;;102.80;1715.20;;;;;;4917873;29;20478;-70
2021/01/19 07:22:09;;;;;;;371.73;244.02;;;102.90;1715.20;;;;;;4917632;29;20035;-71
2021/01/19 07:24:45;;;;;;;355.75;227.57;;;102.90;1715.20;;;;;;4917871;29;20035;-70
2021/01/19 07:27:13;;;;;;;362.67;227.77;;;102.80;1740.80;;;;;;4917411;29;20047;-69
2021/01/19 07:29:39;;;;;;;381.63;245.30;;;102.40;1792.00;;;;;;4917690;29;20483;-69
2021/01/19 07:32:13;;;;;;;400.33;266.98;;;77.60;1817.60;;;;;;4917433;29;20039;-70
2021/01/19 07:34:40;;;;;;;398.65;271.75;;;102.40;1792.00;;;;;;4917194;29;20044;-70
2021/01/19 07:37:06;;;;;;;400.05;266.70;;;102.50;1766.40;;;;;;4917915;29;20047;-70
2021/01/19 07:39:34;;;;;;;411.10;274.17;;;102.40;1766.40;;;;;;4917390;29;20028;-69
2021/01/19 07:42:12;;;;;;;390.60;258.38;;;77.70;1792.00;;;;;;4917623;29;20039;-70
2021/01/19 07:44:38;;;;;;;396.27;251.05;;;102.70;1766.40;;;;;;4917406;29;20427;-69
2021/01/19 07:47:14;;;;;;;407.52;266.55;;;103.30;1715.20;;;;;;4915866;29;20044;-70
2021/01/19 07:49:40;;;;;;;381.17;242.00;;;103.20;1689.60;;;;;;4917589;29;20145;-70
2021/01/19 07:52:35;;;;;;;273.38;170.45;;;128.10;1689.60;;;;;;4917133;29;20036;-70
2021/01/19 07:55:19;;;;;;;227.13;139.75;;;128.20;1638.40;;;;;;4917566;29;20036;-70
2021/01/19 07:57:46;;;;;;;197.50;132.20;;;128.20;1638.40;;;;;;4917232;29;20103;-71
2021/01/19 08:00:13;;;;;;;199.00;135.65;;;103.30;1612.80;;;;;;4916919;29;20078;-70
2021/01/19 08:02:38;;;;;;;199.93;132.65;;;103.30;1638.40;;;;;;4917274;29;20387;-70
2021/01/19 08:05:05;;;;;;;215.57;147.60;;;128.00;1664.00;;;;;;4916210;29;20032;-70
2021/01/19 08:07:44;;;;;;;180.77;115.35;;;128.30;1638.40;;;;;;4916814;29;20083;-70
2021/01/19 08:10:33;;;;;;;204.00;135.10;;;128.70;1587.20;;;;;;4916907;29;20475;-70
2021/01/19 08:12:59;;;;;;;220.15;139.48;;;128.60;1612.80;;;;;;4916791;29;20020;-70
2021/01/19 08:15:33;;;;;;;282.98;189.07;;;153.80;1587.20;;;;;;4916536;29;20036;-70
2021/01/19 08:18:03;;;;;;;313.95;214.82;;;153.90;1536.00;;;;;;4916640;29;20416;-70
2021/01/19 08:20:34;;;;;;;387.25;264.88;;;153.70;1561.60;;;;;;4916642;29;20132;-70
2021/01/19 08:23:16;;;;;;;318.60;219.15;;;153.60;1612.80;;;;;;4917106;29;20394;-71
2021/01/19 08:25:41;;;;;;;312.10;207.68;;;153.90;1561.60;;;;;;4916873;29;20027;-70
2021/01/19 08:28:09;;;;;;;266.30;179.02;;;154.40;1510.40;;;;;;4916791;29;20369;-69
2021/01/19 08:30:37;;;;;;;383.80;254.10;;;179.70;1459.20;;;;;;4916600;29;20490;-70
2021/01/19 08:33:03;;;;;;;224.88;150.32;;;180.10;1408.00;;;;;;4916480;29;20040;-70
2021/01/19 08:35:30;;;;;;;256.38;161.68;;;205.00;1356.80;;;;;;4916377;29;20071;-70
2021/01/19 08:37:59;;;;;;;166.90;113.07;;;205.30;1331.20;;;;;;4916381;29;20134;-69
2021/01/19 08:40:31;;;;;;;174.95;122.05;;;180.10;1356.80;;;;;;4916761;29;20039;-70
2021/01/19 08:42:58;;;;;;;132.95;90.88;;;179.60;1433.60;;;;;;4916828;29;20035;-70
2021/01/19 08:45:35;;;;;;;166.20;110.63;;;179.70;1408.00;;;;;;4915637;29;20051;-70
2021/01/19 08:48:02;;;;;;;174.13;124.30;;;204.90;1356.80;;;;;;4916619;29;20478;-70
2021/01/19 08:50:32;;;;;;;279.33;184.68;;;205.30;1356.80;;;;;;4916651;29;20059;-70
2021/01/19 08:53:05;;;;;;;350.30;215.05;;;205.50;1305.60;;;;;;4916572;29;20025;-70
2021/01/19 08:55:31;;;;;;;208.30;142.73;;;230.50;1280.00;;;;;;4916065;29;20034;-71
2021/01/19 08:57:58;;;;;;;251.25;164.25;;;230.70;1254.40;;;;;;4915954;29;20466;-70
2021/01/19 09:00:29;;;;;;;244.35;154.40;;;230.90;1228.80;;;;;;4916516;29;20506;-70
2021/01/19 09:02:57;;;;;;;316.53;199.13;;;231.10;1203.20;;;;;;4916715;29;20123;-70
2021/01/19 09:05:30;;;;;;;249.85;169.93;;;256.00;1177.60;;;;;;4916648;29;20107;-70
2021/01/19 09:07:57;;;;;;;263.63;180.18;;;231.20;1152.00;;;;;;4916044;29;20037;-70
2021/01/19 09:10:29;;;;;;;225.18;157.20;;;231.20;1177.60;;;;;;4916473;29;20386;-71
2021/01/19 09:12:55;;;;;;;;;;;231.20;1203.20;;;;;;4916947;29;20063;-70
2021/01/19 09:15:22;;;;;;;232.85;165.82;;;231.00;1203.20;;;;;;4915952;29;20009;-70
2021/01/19 09:17:58;;;;;;;275.02;197.50;;;256.30;1177.60;;;;;;4919388;29;20070;-70
2021/01/19 09:20:25;;;;;;;458.92;323.50;;;333.70;972.80;;;;;;4919838;29;20028;-71
2021/01/19 09:22:51;;;;;;;346.88;266.38;;;410.40;819.20;;;;;;4919898;29;20051;-71
2021/01/19 09:25:20;;;;;;;352.38;271.30;;;461.60;716.80;;;;;;4919425;29;20369;-70
2021/01/19 09:27:46;;;;;;;348.10;273.15;;;512.80;614.40;;;;;;4919891;29;20036;-70
2021/01/19 09:30:15;;;;;;;376.70;294.00;;;538.10;588.80;;;;;;4919528;29;20356;-69
2021/01/19 09:32:43;;;;;;;356.00;275.48;;;538.50;588.80;;;;;;4919458;29;20443;-69
2021/01/19 09:35:10;;;;;;;292.50;234.82;;;538.10;588.80;;;;;;4919618;29;20074;-69
2021/01/19 09:37:36;;;;;;;278.65;226.77;;;486.80;665.60;;;;;;4919386;29;20047;-69
2021/01/19 09:40:03;;;;;;;262.63;217.88;;;487.20;640.00;;;;;;4919702;29;20032;-69
2021/01/19 09:42:29;;;;;;;278.45;230.38;;;563.40;563.20;;;;;;4919458;29;20498;-68
2021/01/19 09:44:55;;;;;;;307.33;261.30;;;589.10;512.00;;;;;;4919791;29;20032;-69
2021/01/19 09:47:25;;;;;;;332.05;272.77;;;614.50;460.80;;;;;;4919291;29;20020;-69
2021/01/19 09:49:52;;;;;;;337.85;277.95;;;614.60;460.80;;;;;;4919397;29;20468;-69
2021/01/19 09:52:20;;;;;;;306.40;261.83;;;615.10;460.80;;;;;;4919237;29;20040;-69
2021/01/19 09:54:46;;;;;;;308.73;261.80;;;640.10;435.20;;;;;;4919055;29;20028;-69
2021/01/19 09:57:11;;;;;;;287.42;244.95;;;614.90;460.80;;;;;;4919171;29;20051;-69
2021/01/19 09:59:40;;;;;;;279.38;239.45;;;538.00;614.40;;;;;;4918957;29;20052;-69
2021/01/19 10:02:06;;;;;;;323.83;271.52;;;614.40;486.40;;;;;;4918911;29;20024;-69
2021/01/19 10:04:32;;;;;;;296.33;246.00;;;640.70;435.20;;;;;;4918980;29;20036;-69
2021/01/19 10:07:08;;;;;;;235.68;202.10;;;640.70;409.60;;;;;;4919109;29;20033;-71
2021/01/19 10:09:35;;;;;;;259.05;219.88;;;640.60;409.60;;;;;;4918770;29;20091;-71
2021/01/19 10:12:05;;;;;;;274.27;232.02;;;666.00;409.60;;;;;;4918711;29;20047;-69
2021/01/19 10:14:41;;;;;;;249.65;212.70;;;666.00;409.60;;;;;;4918916;29;20491;-71
2021/01/19 10:17:08;;;;;;;258.55;226.88;;;640.50;409.60;;;;;;4918603;29;20036;-71
2021/01/19 10:19:35;;;;;;;249.75;222.10;;;589.30;537.60;;;;;;4918855;29;20028;-71
2021/01/19 10:22:06;;;;;;;230.00;198.35;;;563.40;588.80;;;;;;4918424;29;20028;-71
2021/01/19 10:24:32;;;;;;;223.53;198.67;;;614.70;460.80;;;;;;4918469;29;20441;-70
2021/01/19 10:27:09;;;;;;;207.93;177.48;;;615.10;460.80;;;;;;4918541;29;20785;-70
2021/01/19 10:29:43;;;;;;;206.65;179.07;;;640.30;409.60;;;;;;4918017;29;20068;-71
2021/01/19 10:32:12;;;;;;;199.48;177.60;;;640.60;409.60;;;;;;4918650;29;20087;-71
2021/01/19 10:34:38;;;;;;;154.32;129.98;;;666.50;409.60;;;;;;4918174;29;20036;-70
2021/01/19 10:37:04;;;;;;;171.32;147.48;;;666.20;435.20;;;;;;4918257;29;20127;-70
2021/01/19 10:39:30;;;;;;;174.20;144.77;;;640.70;384.00;;;;;;4917235;29;20099;-71
2021/01/19 10:41:57;;;;;;;104.18;85.63;;;615.20;435.20;;;;;;4918369;29;20099;-70
2021/01/19 10:44:26;;;;;;;127.15;108.07;;;614.70;435.20;;;;;;4918464;29;20020;-71
2021/01/19 10:47:00;;;;;;;127.38;106.85;;;588.80;512.00;;;;;;4918084;29;20380;-71
2021/01/19 10:49:30;;;;;;;148.43;116.72;;;589.70;486.40;;;;;;4918385;29;20064;-69
2021/01/19 10:51:57;;;;;;;160.30;125.65;;;588.90;512.00;;;;;;4918054;29;20042;-71
2021/01/19 10:54:25;;;;;;;207.55;152.95;;;538.20;563.20;;;;;;4918409;29;20483;-70
2021/01/19 10:57:05;;;;;;;295.25;207.23;;;512.00;614.40;;;;;;4918007;29;20483;-72
2021/01/19 10:59:31;;;;;;;92.07;70.40;;;512.20;588.80;;;;;;4918021;29;20032;-72
2021/01/19 11:01:57;;;;;;;67.93;53.88;;;486.80;614.40;;;;;;4918059;29;20039;-72
2021/01/19 11:04:23;;;;;;;94.03;74.30;;;486.80;614.40;;;;;;4916520;29;20072;-72
2021/01/19 11:06:48;;;;;;;88.22;69.88;;;512.60;563.20;;;;;;4918249;29;20040;-72
2021/01/19 11:09:15;;;;;;;100.13;82.45;;;537.90;537.60;;;;;;4917628;29;20035;-71
2021/01/19 11:11:40;;;;;;;150.50;115.57;;;564.00;512.00;;;;;;4917968;29;20035;-71
2021/01/19 11:14:07;;;;;;;131.52;95.18;;;589.10;486.40;;;;;;4917643;29;20023;-72
2021/01/19 11:16:39;;;;;;;287.10;186.85;;;589.40;486.40;;;;;;4917382;29;20035;-71
2021/01/19 11:19:06;;;;;;;185.23;122.65;;;563.40;537.60;;;;;;4916455;29;20421;-72
2021/01/19 11:21:34;;;;;;;74.22;53.75;;;538.50;512.00;;;;;;4917714;29;20047;-73
2021/01/19 11:24:04;;;;;;;128.50;85.03;;;537.90;563.20;;;;;;4917680;29;20101;-70
2021/01/19 11:26:30;;;;;;;118.05;75.32;;;537.90;563.20;;;;;;4917409;29;20383;-70
2021/01/19 11:28:57;;;;;;;173.35;103.22;;;512.40;563.20;;;;;;4917215;29;20079;-72
2021/01/19 11:31:27;;;;;;;53.20;39.55;;;487.30;588.80;;;;;;4917301;29;20028;-71
2021/01/19 11:33:57;;;;;;;115.78;84.72;;;486.80;588.80;;;;;;4917003;29;20039;-72
2021/01/19 11:36:34;;;;;;;150.27;102.78;;;486.90;588.80;;;;;;4916382;29;20098;-72
2021/01/19 11:39:03;;;;;;;61.17;41.88;;;486.90;614.40;;;;;;4917414;29;20329;-72
2021/01/19 11:41:28;;;;;;;71.40;50.92;;;486.40;614.40;;;;;;4917557;29;20059;-72
2021/01/19 11:43:55;;;;;;;56.67;39.00;;;486.40;640.00;;;;;;4916918;29;20475;-72
2021/01/19 11:46:26;;;;;;;56.10;39.60;;;461.60;588.80;;;;;;4917248;29;20035;-72
2021/01/19 11:48:54;;;;;;;51.28;37.28;;;461.60;614.40;;;;;;4917198;29;20163;-72
2021/01/19 11:51:22;;;;;;;50.30;35.95;;;461.40;640.00;;;;;;4917166;29;20039;-69
2021/01/19 11:53:49;;;;;;;50.08;39.80;;;461.60;640.00;;;;;;4917112;29;20051;-70
2021/01/19 11:56:16;;;;;;;61.13;44.88;;;436.10;640.00;;;;;;4916711;29;20059;-72
2021/01/19 11:58:43;;;;;;;42.75;31.58;;;461.60;665.60;;;;;;4917098;29;20019;-72
2021/01/19 12:01:16;;;;;;;44.65;32.10;;;461.50;614.40;;;;;;4916788;29;20032;-72